UTA225 USTR-USHU
Flight info
| Callsign | UTA225 |
|---|---|
| Flight time | 0h 58m |
| Altitude | 13000 |
| Route | N0240F130 LAKED L165 LUGIK W320 PEKIL |
| Aircraft | AN24/M-I/L |
Departure
| Time | 2026-05-04 10:14 |
|---|---|
| Airport | Roshchino International Airport (USTR) |
Arrival
| Time | 2026-05-04 11:12 |
|---|---|
| Airport | Uray Airport (USHU) |
| Time | Latitude | Longitude | Altitude | Speed | Heading |
|---|---|---|---|---|---|
| 2026-05-04 09:25 | 57.17770 | 65.35076 | 336 ft | 0 kts | 44° |
| 2026-05-04 10:06 | 57.17771 | 65.35078 | 335 ft | 0 kts | 45° |
| 2026-05-04 10:06 | 57.17809 | 65.35101 | 335 ft | 7 kts | 321° |
| 2026-05-04 10:08 | 57.17970 | 65.34251 | 337 ft | 21 kts | 315° |
| 2026-05-04 10:08 | 57.18176 | 65.33874 | 335 ft | 49 kts | 314° |
| 2026-05-04 10:08 | 57.18386 | 65.33482 | 329 ft | 38 kts | 314° |
| 2026-05-04 10:08 | 57.18486 | 65.33200 | 324 ft | 18 kts | 250° |
| 2026-05-04 10:09 | 57.18476 | 65.33000 | 327 ft | 13 kts | 268° |
| 2026-05-04 10:09 | 57.18473 | 65.32827 | 332 ft | 15 kts | 268° |
| 2026-05-04 10:09 | 57.18470 | 65.32644 | 336 ft | 14 kts | 268° |
| 2026-05-04 10:09 | 57.18465 | 65.32429 | 340 ft | 20 kts | 268° |
| 2026-05-04 10:10 | 57.18469 | 65.32189 | 339 ft | 17 kts | 299° |
| 2026-05-04 10:10 | 57.18552 | 65.32040 | 337 ft | 16 kts | 318° |
| 2026-05-04 10:10 | 57.18627 | 65.31915 | 338 ft | 7 kts | 316° |
| 2026-05-04 10:10 | 57.18629 | 65.31911 | 338 ft | 0 kts | 317° |
| 2026-05-04 10:11 | 57.18630 | 65.31908 | 338 ft | 1 kts | 317° |
| 2026-05-04 10:11 | 57.18667 | 65.31848 | 339 ft | 12 kts | 317° |
| 2026-05-04 10:11 | 57.18705 | 65.31731 | 340 ft | 10 kts | 253° |
| 2026-05-04 10:12 | 57.18670 | 65.31645 | 342 ft | 5 kts | 228° |
| 2026-05-04 10:12 | 57.18666 | 65.31637 | 342 ft | 0 kts | 228° |
| 2026-05-04 10:13 | 57.18527 | 65.31357 | 349 ft | 68 kts | 227° |
| 2026-05-04 10:13 | 57.18083 | 65.30447 | 359 ft | 119 kts | 226° |
| 2026-05-04 10:13 | 57.17460 | 65.29174 | 507 ft | 144 kts | 224° |
| 2026-05-04 10:13 | 57.16751 | 65.27757 | 816 ft | 156 kts | 223° |
| 2026-05-04 10:14 | 57.15979 | 65.26241 | 1125 ft | 168 kts | 223° |
| 2026-05-04 10:14 | 57.15081 | 65.24894 | 1542 ft | 167 kts | 204° |
| 2026-05-04 10:16 | 57.13538 | 65.34925 | 3804 ft | 206 kts | 26° |
| 2026-05-04 10:16 | 57.14875 | 65.35672 | 4132 ft | 203 kts | 8° |
| 2026-05-04 10:16 | 57.16249 | 65.36142 | 4595 ft | 195 kts | 7° |
| 2026-05-04 10:16 | 57.17573 | 65.36485 | 4927 ft | 195 kts | 4° |
| 2026-05-04 10:17 | 57.18939 | 65.36829 | 5185 ft | 199 kts | 5° |
| 2026-05-04 10:17 | 57.20311 | 65.37187 | 5490 ft | 199 kts | 4° |
| 2026-05-04 10:19 | 57.29928 | 65.39580 | 7528 ft | 203 kts | 3° |
| 2026-05-04 10:19 | 57.31321 | 65.39820 | 7824 ft | 202 kts | 359° |
| 2026-05-04 10:19 | 57.32743 | 65.40070 | 8001 ft | 207 kts | 2° |
| 2026-05-04 10:19 | 57.34154 | 65.40318 | 8318 ft | 204 kts | 0° |
| 2026-05-04 10:20 | 57.35554 | 65.40539 | 8620 ft | 202 kts | 0° |
| 2026-05-04 10:20 | 57.36972 | 65.40742 | 8881 ft | 203 kts | 0° |
| 2026-05-04 10:20 | 57.38359 | 65.40994 | 9160 ft | 203 kts | 3° |
| 2026-05-04 10:20 | 57.39762 | 65.41319 | 9423 ft | 203 kts | 3° |
| 2026-05-04 10:21 | 57.41149 | 65.41670 | 9663 ft | 203 kts | 4° |
| 2026-05-04 10:21 | 57.42543 | 65.42016 | 9909 ft | 203 kts | 3° |
| 2026-05-04 10:21 | 57.43969 | 65.42338 | 10116 ft | 205 kts | 2° |
| 2026-05-04 10:21 | 57.45378 | 65.42645 | 10359 ft | 205 kts | 3° |
| 2026-05-04 10:22 | 57.48174 | 65.43439 | 10820 ft | 205 kts | 5° |
| 2026-05-04 10:22 | 57.49600 | 65.43877 | 10991 ft | 208 kts | 5° |
| 2026-05-04 10:22 | 57.51039 | 65.44268 | 11167 ft | 210 kts | 4° |
| 2026-05-04 10:23 | 57.52479 | 65.44653 | 11337 ft | 210 kts | 4° |
| 2026-05-04 10:23 | 57.53924 | 65.45037 | 11535 ft | 210 kts | 5° |
| 2026-05-04 10:25 | 57.63818 | 65.48071 | 12502 ft | 206 kts | 7° |
| 2026-05-04 10:25 | 57.65200 | 65.48607 | 12660 ft | 206 kts | 9° |
| 2026-05-04 10:25 | 57.66613 | 65.49198 | 12801 ft | 209 kts | 9° |
| 2026-05-04 10:25 | 57.68034 | 65.49815 | 12890 ft | 214 kts | 10° |
| 2026-05-04 10:26 | 57.69504 | 65.50506 | 12904 ft | 222 kts | 12° |
| 2026-05-04 10:26 | 57.71012 | 65.51266 | 12900 ft | 229 kts | 12° |
| 2026-05-04 10:26 | 57.72581 | 65.52003 | 12909 ft | 233 kts | 9° |
| 2026-05-04 10:26 | 57.74159 | 65.52605 | 12881 ft | 238 kts | 8° |
| 2026-05-04 10:27 | 57.75798 | 65.53207 | 12873 ft | 241 kts | 8° |
| 2026-05-04 10:27 | 57.77447 | 65.53816 | 12870 ft | 241 kts | 8° |
| 2026-05-04 10:27 | 57.79094 | 65.54428 | 12884 ft | 241 kts | 8° |
| 2026-05-04 10:27 | 57.80735 | 65.55036 | 12858 ft | 241 kts | 8° |
| 2026-05-04 10:28 | 57.82365 | 65.55642 | 12880 ft | 241 kts | 8° |
| 2026-05-04 10:28 | 57.84012 | 65.56255 | 12856 ft | 241 kts | 8° |
| 2026-05-04 10:28 | 57.85636 | 65.56861 | 12853 ft | 240 kts | 8° |
| 2026-05-04 10:28 | 57.87277 | 65.57472 | 12887 ft | 239 kts | 8° |
| 2026-05-04 10:29 | 57.88892 | 65.58074 | 12886 ft | 241 kts | 8° |
| 2026-05-04 10:29 | 57.90541 | 65.58691 | 12877 ft | 242 kts | 8° |
| 2026-05-04 10:29 | 57.92193 | 65.59309 | 12872 ft | 243 kts | 8° |
| 2026-05-04 10:29 | 57.93844 | 65.59924 | 12879 ft | 242 kts | 9° |
| 2026-05-04 10:30 | 57.95499 | 65.60542 | 12884 ft | 241 kts | 8° |
| 2026-05-04 10:30 | 57.97144 | 65.61160 | 12872 ft | 241 kts | 8° |
| 2026-05-04 10:30 | 57.98776 | 65.61719 | 12888 ft | 240 kts | 5° |
| 2026-05-04 10:30 | 58.00435 | 65.62037 | 12901 ft | 239 kts | 1° |
| 2026-05-04 10:31 | 58.02085 | 65.62270 | 12859 ft | 241 kts | 1° |
| 2026-05-04 10:31 | 58.03754 | 65.62514 | 12853 ft | 241 kts | 2° |
| 2026-05-04 10:32 | 58.13728 | 65.64251 | 12883 ft | 240 kts | 2° |
| 2026-05-04 10:33 | 58.15384 | 65.64540 | 12871 ft | 241 kts | 2° |
| 2026-05-04 10:33 | 58.17042 | 65.64831 | 12868 ft | 241 kts | 2° |
| 2026-05-04 10:33 | 58.18712 | 65.65125 | 12867 ft | 241 kts | 3° |
| 2026-05-04 10:33 | 58.20377 | 65.65420 | 12874 ft | 241 kts | 3° |
| 2026-05-04 10:34 | 58.22044 | 65.65712 | 12853 ft | 242 kts | 3° |
| 2026-05-04 10:34 | 58.23715 | 65.66008 | 12874 ft | 240 kts | 3° |
| 2026-05-04 10:34 | 58.25365 | 65.66299 | 12875 ft | 240 kts | 3° |
| 2026-05-04 10:34 | 58.27040 | 65.66594 | 12887 ft | 239 kts | 3° |
| 2026-05-04 10:35 | 58.28685 | 65.66885 | 12880 ft | 240 kts | 3° |
| 2026-05-04 10:35 | 58.30334 | 65.67175 | 12886 ft | 240 kts | 3° |
| 2026-05-04 10:35 | 58.31995 | 65.67470 | 12876 ft | 241 kts | 3° |
| 2026-05-04 10:35 | 58.33677 | 65.67767 | 12870 ft | 241 kts | 3° |
| 2026-05-04 10:36 | 58.35328 | 65.68061 | 12883 ft | 241 kts | 3° |
| 2026-05-04 10:36 | 58.37008 | 65.68358 | 12862 ft | 242 kts | 3° |
| 2026-05-04 10:36 | 58.38683 | 65.68656 | 12875 ft | 242 kts | 3° |
| 2026-05-04 10:36 | 58.40352 | 65.68954 | 12871 ft | 242 kts | 2° |
| 2026-05-04 10:37 | 58.42015 | 65.69251 | 12876 ft | 241 kts | 3° |
| 2026-05-04 10:37 | 58.43676 | 65.69544 | 12855 ft | 242 kts | 2° |
| 2026-05-04 10:37 | 58.45339 | 65.69836 | 12872 ft | 240 kts | 3° |
| 2026-05-04 10:37 | 58.46995 | 65.70136 | 12871 ft | 239 kts | 3° |
| 2026-05-04 10:39 | 58.56813 | 65.71894 | 12865 ft | 235 kts | 3° |
| 2026-05-04 10:39 | 58.58437 | 65.72187 | 12875 ft | 235 kts | 3° |
| 2026-05-04 10:39 | 58.60053 | 65.72475 | 12864 ft | 236 kts | 3° |
| 2026-05-04 10:40 | 58.61683 | 65.72771 | 12879 ft | 235 kts | 2° |
| 2026-05-04 10:40 | 58.63303 | 65.73061 | 12868 ft | 236 kts | 2° |
| 2026-05-04 10:40 | 58.64952 | 65.73359 | 12876 ft | 236 kts | 3° |
| 2026-05-04 10:40 | 58.66580 | 65.73653 | 12874 ft | 236 kts | 2° |
| 2026-05-04 10:41 | 58.68205 | 65.73946 | 12873 ft | 236 kts | 3° |
| 2026-05-04 10:41 | 58.69819 | 65.74239 | 12882 ft | 236 kts | 2° |
| 2026-05-04 10:41 | 58.71474 | 65.74537 | 12865 ft | 237 kts | 3° |
| 2026-05-04 10:41 | 58.73100 | 65.74833 | 12884 ft | 236 kts | 3° |
| 2026-05-04 10:42 | 58.74731 | 65.75128 | 12870 ft | 237 kts | 3° |
| 2026-05-04 10:42 | 58.76361 | 65.75423 | 12876 ft | 237 kts | 3° |
| 2026-05-04 10:42 | 58.77997 | 65.75722 | 12886 ft | 237 kts | 3° |
| 2026-05-04 10:42 | 58.79649 | 65.76021 | 12875 ft | 238 kts | 3° |
| 2026-05-04 10:43 | 58.81287 | 65.76320 | 12882 ft | 238 kts | 2° |
| 2026-05-04 10:44 | 58.92835 | 65.78430 | 12885 ft | 240 kts | 2° |
| 2026-05-04 10:45 | 58.94494 | 65.78732 | 12869 ft | 241 kts | 3° |
| 2026-05-04 10:45 | 58.96175 | 65.79043 | 12878 ft | 240 kts | 3° |
| 2026-05-04 10:45 | 58.97820 | 65.79344 | 12881 ft | 240 kts | 3° |
| 2026-05-04 10:45 | 58.99494 | 65.79652 | 12871 ft | 241 kts | 3° |
| 2026-05-04 10:46 | 59.01135 | 65.79955 | 12885 ft | 240 kts | 3° |
| 2026-05-04 10:46 | 59.02823 | 65.80265 | 12861 ft | 241 kts | 3° |
| 2026-05-04 10:46 | 59.04483 | 65.80572 | 12886 ft | 241 kts | 3° |
| 2026-05-04 10:46 | 59.06147 | 65.80878 | 12893 ft | 241 kts | 3° |
| 2026-05-04 10:47 | 59.07811 | 65.81187 | 12873 ft | 243 kts | 3° |
| 2026-05-04 10:47 | 59.09486 | 65.81497 | 12882 ft | 242 kts | 3° |
| 2026-05-04 10:47 | 59.11170 | 65.81809 | 12870 ft | 243 kts | 3° |
| 2026-05-04 10:47 | 59.12834 | 65.82118 | 12867 ft | 243 kts | 3° |
| 2026-05-04 10:49 | 59.24520 | 65.84297 | 12865 ft | 240 kts | 3° |
| 2026-05-04 10:49 | 59.26184 | 65.84606 | 12873 ft | 239 kts | 4° |
| 2026-05-04 10:50 | 59.27819 | 65.84914 | 12867 ft | 240 kts | 4° |
| 2026-05-04 10:51 | 59.39439 | 65.87098 | 12870 ft | 241 kts | 4° |
| 2026-05-04 10:52 | 59.41096 | 65.87409 | 12857 ft | 241 kts | 4° |
| 2026-05-04 10:52 | 59.42762 | 65.87725 | 12875 ft | 241 kts | 4° |
| 2026-05-04 10:52 | 59.44436 | 65.88040 | 12861 ft | 242 kts | 4° |
| 2026-05-04 10:54 | 59.56121 | 65.90268 | 12868 ft | 241 kts | 4° |
| 2026-05-04 10:54 | 59.57802 | 65.90591 | 12844 ft | 242 kts | 4° |
| 2026-05-04 10:56 | 59.69428 | 65.92839 | 12853 ft | 241 kts | 4° |
| 2026-05-04 10:56 | 59.71086 | 65.92644 | 12863 ft | 238 kts | 346° |
| 2026-05-04 10:56 | 59.72613 | 65.91452 | 12860 ft | 236 kts | 327° |
| 2026-05-04 10:57 | 59.73865 | 65.89454 | 12846 ft | 233 kts | 313° |
| 2026-05-04 10:57 | 59.75000 | 65.87113 | 12810 ft | 235 kts | 311° |
| 2026-05-04 10:57 | 59.76112 | 65.84787 | 12819 ft | 234 kts | 311° |
| 2026-05-04 10:57 | 59.77217 | 65.82483 | 12903 ft | 231 kts | 311° |
| 2026-05-04 10:58 | 59.78328 | 65.80158 | 12836 ft | 235 kts | 311° |
| 2026-05-04 10:58 | 59.79389 | 65.77730 | 12610 ft | 227 kts | 309° |
| 2026-05-04 10:58 | 59.80394 | 65.75401 | 12289 ft | 221 kts | 308° |
| 2026-05-04 10:58 | 59.81370 | 65.73078 | 11918 ft | 219 kts | 308° |
| 2026-05-04 10:59 | 59.82350 | 65.70785 | 11502 ft | 219 kts | 308° |
| 2026-05-04 10:59 | 59.83315 | 65.68445 | 11091 ft | 219 kts | 307° |
| 2026-05-04 10:59 | 59.84257 | 65.66093 | 10689 ft | 218 kts | 307° |
| 2026-05-04 10:59 | 59.85204 | 65.63812 | 10342 ft | 214 kts | 308° |
| 2026-05-04 11:00 | 59.86134 | 65.61531 | 9944 ft | 213 kts | 307° |
| 2026-05-04 11:01 | 59.92349 | 65.45470 | 7261 ft | 206 kts | 302° |
| 2026-05-04 11:02 | 59.93141 | 65.43116 | 6887 ft | 205 kts | 303° |
| 2026-05-04 11:02 | 59.93959 | 65.40844 | 6513 ft | 204 kts | 305° |
| 2026-05-04 11:05 | 60.04885 | 65.11111 | 3365 ft | 179 kts | 298° |
| 2026-05-04 11:06 | 60.05528 | 65.08954 | 3318 ft | 178 kts | 297° |
| 2026-05-04 11:06 | 60.06135 | 65.06821 | 3257 ft | 178 kts | 295° |
| 2026-05-04 11:06 | 60.06737 | 65.04622 | 3195 ft | 178 kts | 295° |
| 2026-05-04 11:06 | 60.07318 | 65.02474 | 3171 ft | 176 kts | 294° |
| 2026-05-04 11:08 | 60.11707 | 64.90894 | 2072 ft | 164 kts | 11° |
| 2026-05-04 11:10 | 60.16218 | 64.90346 | 996 ft | 117 kts | 239° |
| 2026-05-04 11:12 | 60.12345 | 64.83279 | 327 ft | 112 kts | 191° |
| 2026-05-04 11:12 | 60.11601 | 64.82965 | 205 ft | 102 kts | 192° |
| 2026-05-04 11:12 | 60.11033 | 64.82714 | 199 ft | 61 kts | 193° |
| 2026-05-04 11:12 | 60.10766 | 64.82584 | 197 ft | 15 kts | 203° |
| 2026-05-04 11:13 | 60.10733 | 64.82587 | 196 ft | 3 kts | 43° |
| 2026-05-04 11:13 | 60.10835 | 64.82629 | 197 ft | 32 kts | 11° |
| 2026-05-04 11:13 | 60.11107 | 64.82745 | 199 ft | 39 kts | 11° |
| 2026-05-04 11:13 | 60.11343 | 64.82854 | 201 ft | 30 kts | 12° |
| 2026-05-04 11:14 | 60.11493 | 64.82855 | 201 ft | 17 kts | 296° |
| 2026-05-04 11:14 | 60.11523 | 64.82640 | 199 ft | 14 kts | 311° |
| 2026-05-04 11:14 | 60.11610 | 64.82620 | 199 ft | 12 kts | 353° |
| 2026-05-04 11:16 | 60.11702 | 64.82496 | 200 ft | 0 kts | 193° |